• Join FlightAware (Why Join?)
  • Login
  • US Flag 
08:09PM EDT


 

Airport Tracker/Info


-or-


 

Live Flight TrackerFlight Track Log ✈ SWA584 ✈ 17-Feb-2014 ✈ KPHL - KLAS

Flight Track Log - Related Links

Times and Time Zones

All times are in EST time to prevent confusion due to time zone crossing. See the SWA584 flight status page for this flight to view local times or setup timezone preferences in your user account.

Time Position Orientation Groundspeed Altitude Reporting Facility
EST Latitude Longitude Course Direction KTS MPH feet Rate Location/Type
03:12PM 39.8667 -75.2833 247° West 158 182 1,000  Level Philadelphia TRACON
03:13PM 39.8333 -75.3833 247° West 253 291 3,600 2,580 Climbing Philadelphia TRACON
03:14PM 39.8333 -75.4833 270° West 269 310 7,300 3,120 Climbing Philadelphia TRACON
03:15PM 39.8833 -75.4833 360° North 259 298 9,900 1,440 Climbing Philadelphia TRACON
03:16PM 39.9347 -75.4653 15° North 241 277 10,000 180 Climbing New York Center
03:17PM 40.0072 -75.4242 23° Northeast 241 277 10,300 900 Climbing New York Center
03:18PM 40.0664 -75.4578 337° Northwest 293 337 11,800 1,320 Climbing New York Center
03:19PM 40.1494 -75.5150 332° Northwest 340 391 13,000 1,140 Climbing New York Center
03:20PM 40.2225 -75.5661 332° Northwest 335 386 14,100 1,920 Climbing New York Center
03:21PM 40.2794 -75.6464 313° West 314 361 16,900 1,620 Climbing New York Center
03:22PM 40.3403 -75.7378 311° West 302 348 17,400 1,020 Climbing New York Center
03:23PM 40.3972 -75.8236 311° West 302 348 19,000 780 Climbing New York Center
03:24PM 40.4433 -75.9144 304° West 321 369 19,000 120 Level New York Center
03:25PM 40.4594 -76.0219 281° West 314 361 19,300 840 Climbing New York Center
03:26PM 40.4789 -76.1461 282° West 328 377 20,700 1,740 Climbing New York Center
03:27PM 40.4975 -76.2814 280° West 356 410 22,800 2,040 Climbing New York Center
03:28PM 40.5183 -76.4169 281° West 371 427 24,800 1,920 Climbing New York Center
03:29PM 40.5386 -76.5553 281° West 379 436 26,700 1,860 Climbing New York Center
03:30PM 40.5569 -76.6906 280° West 379 436 28,600 1,140 Climbing New York Center
03:31PM 40.5789 -76.8319 282° West 384 442 29,000 660 Climbing New York Center
03:32PM 40.5989 -76.9731 281° West 389 448 30,000 960 Climbing New York Center
03:33PM 40.6206 -77.1117 282° West 394 453 31,000 480 Climbing New York Center
03:34PM 40.6381 -77.2528 279° West 394 453 31,000 780 Level New York Center
03:35PM 40.6597 -77.3864 282° West 389 448 32,600 1,380 Climbing New York Center
03:37PM 40.6989 -77.6778 280° West 369 425 35,700 1,020 Climbing Cleveland Center
03:38PM 40.7217 -77.8372 281° West 369 425 36,000 120 Climbing Cleveland Center
03:39PM 40.7389 -77.9708 280° West 371 427 36,000  Level Cleveland Center
03:40PM 40.7569 -78.1058 280° West 373 429 36,000  Level Cleveland Center
03:41PM 40.7747 -78.2392 280° West 372 428 36,000  Level Cleveland Center
03:42PM 40.7925 -78.3731 280° West 370 426 36,000  Level Cleveland Center
03:43PM 40.8100 -78.5086 280° West 372 428 36,000  Level Cleveland Center
03:44PM 40.8272 -78.6442 280° West 372 428 36,000  Level Cleveland Center
03:45PM 40.8444 -78.7811 279° West 374 430 36,000  Level Cleveland Center
03:47PM 40.8625 -78.9258 279° West 379 436 36,000  Level Cleveland Center
03:48PM 40.8803 -79.0625 280° West 379 436 36,000  Level Cleveland Center
03:49PM 40.9006 -79.2264 279° West 376 433 36,000  Level Cleveland Center
03:50PM 40.9169 -79.3642 279° West 379 436 36,000  Level Cleveland Center
03:51PM 40.9339 -79.5008 279° West 379 436 36,000  Level Cleveland Center
03:52PM 40.9492 -79.6381 278° West 380 437 36,000  Level Cleveland Center
03:53PM 40.9656 -79.7750 279° West 380 437 36,000  Level Cleveland Center
03:54PM 40.9817 -79.9122 279° West 380 437 36,000  Level Cleveland Center
03:55PM 41.0014 -80.0781 279° West 382 440 36,000  Level Cleveland Center
03:56PM 41.0169 -80.2161 279° West 382 440 36,000  Level Cleveland Center
03:57PM 41.0325 -80.3553 278° West 384 442 36,000  Level Cleveland Center
03:58PM 41.0478 -80.4936 278° West 383 441 36,000  Level Cleveland Center
03:59PM 41.0633 -80.6322 279° West 382 440 36,000  Level Cleveland Center
04:00PM 41.0819 -80.8006 278° West 387 445 36,000  Level Cleveland Center
04:01PM 41.0981 -80.9417 279° West 389 448 36,000  Level Cleveland Center
04:02PM 41.1136 -81.0989 278° West 394 453 36,000  Level Cleveland Center
04:03PM 41.1289 -81.2442 278° West 395 455 36,000  Level Cleveland Center
04:04PM 41.1439 -81.3922 278° West 398 458 36,000  Level Cleveland Center
04:05PM 41.1569 -81.5197 278° West 399 459 36,000  Level Cleveland Center
04:06PM 41.1747 -81.6906 278° West 393 452 36,000  Level Cleveland Center
04:07PM 41.1889 -81.8339 278° West 393 452 36,000  Level Cleveland Center
04:08PM 41.2019 -81.9714 277° West 380 437 36,000  Level Cleveland Center
04:09PM 41.2161 -82.1128 278° West 373 429 36,000  Level Cleveland Center
04:10PM 41.2292 -82.2503 277° West 372 428 36,000  Level Cleveland Center
04:11PM 41.2422 -82.3867 277° West 369 425 36,000  Level Cleveland Center
04:12PM 41.2547 -82.5231 277° West 369 425 36,000  Level Cleveland Center
04:13PM 41.2686 -82.6808 277° West 365 420 36,000  Level Cleveland Center
04:14PM 41.2819 -82.8181 277° West 370 426 36,000  Level Cleveland Center
04:15PM 41.2936 -82.9561 276° West 372 428 36,000  Level Cleveland Center
04:16PM 41.3058 -83.0950 277° West 374 430 36,000  Level Cleveland Center
04:18PM 41.3194 -83.2450 277° West 375 432 36,000  Level Cleveland Center
04:19PM 41.3317 -83.3831 277° West 377 434 36,000  Level Cleveland Center
04:20PM 41.3422 -83.5203 276° West 374 430 36,000  Level Cleveland Center
04:21PM 41.3542 -83.6608 277° West 379 436 36,000  Level Cleveland Center
04:22PM 41.3656 -83.7961 276° West 372 428 36,000  Level Cleveland Center
04:23PM 41.3764 -83.9331 276° West 372 428 36,000  Level Cleveland Center
04:24PM 41.3950 -84.1639 276° West 373 429 36,000  Level Chicago Center
04:25PM 41.4058 -84.3011 276° West 374 430 36,000  Level Chicago Center
04:26PM 41.4169 -84.4408 276° West 378 435 36,000  Level Chicago Center
04:27PM 41.4269 -84.5800 276° West 379 436 36,000  Level Chicago Center
04:28PM 41.4375 -84.7231 276° West 387 445 36,000  Level Chicago Center
04:29PM 41.4483 -84.8650 276° West 387 445 36,000  Level Chicago Center
04:30PM 41.4583 -85.0092 275° West 389 448 36,000  Level Chicago Center
04:31PM 41.4681 -85.1542 275° West 391 450 36,000  Level Chicago Center
04:32PM 41.4781 -85.3019 275° West 396 456 36,000  Level Chicago Center
04:33PM 41.4881 -85.4511 275° West 396 456 36,000  Level Chicago Center
04:34PM 41.4972 -85.6014 275° West 398 458 36,000  Level Chicago Center
04:35PM 41.5069 -85.7506 275° West 400 460 36,000  Level Chicago Center
04:36PM 41.5189 -85.9311 275° West 406 467 36,000  Level Chicago Center
04:37PM 41.5353 -86.0811 278° West 410 472 36,000  Level Chicago Center
04:39PM 41.5667 -86.2272 286° West 410 472 36,000  Level Chicago Center
04:40PM 41.5969 -86.3764 285° West 413 475 36,000  Level Chicago Center
04:41PM 41.6281 -86.5231 286° West 412 474 36,000  Level Chicago Center
04:42PM 41.6583 -86.6708 285° West 412 474 36,000  Level Chicago Center
04:43PM 41.6872 -86.8189 285° West 412 474 36,000  Level Chicago Center
04:44PM 41.7175 -86.9656 286° West 411 473 36,000  Level Chicago Center
04:45PM 41.7469 -87.1144 285° West 412 474 36,000  Level Chicago Center
04:46PM 41.7769 -87.2644 285° West 416 479 36,000  Level Chicago Center
04:47PM 41.8111 -87.4375 285° West 418 481 36,000  Level Chicago Center
04:48PM 41.8436 -87.6044 285° West 418 481 36,000 180 Level Chicago Center
04:49PM 41.8728 -87.7547 285° West 422 486 36,400 720 Climbing Chicago Center
04:50PM 41.9000 -87.9028 284° West 418 481 37,500 780 Climbing Chicago Center
04:51PM 41.9294 -88.0494 285° West 414 476 38,000 240 Climbing Chicago Center
04:52PM 41.9575 -88.1986 284° West 416 479 38,000  Level Chicago Center
04:53PM 41.9858 -88.3500 284° West 421 484 38,000  Level Chicago Center
04:54PM 42.0206 -88.5350 284° West 427 491 38,000  Level Chicago Center
04:55PM 42.0483 -88.6878 284° West 427 491 38,000  Level Chicago Center
04:56PM 42.0767 -88.8422 284° West 427 491 38,000  Level Chicago Center
04:57PM 42.1053 -88.9978 284° West 429 494 38,000  Level Chicago Center
04:58PM 42.1333 -89.1528 284° West 427 491 38,000  Level Chicago Center
04:59PM 42.1603 -89.3086 283° West 428 493 38,000  Level Chicago Center
05:00PM 42.1944 -89.4931 284° West 419 482 38,000  Level Chicago Center
05:01PM 42.2222 -89.6511 283° West 429 494 38,000  Level Chicago Center
05:02PM 42.2489 -89.8044 283° West 422 486 38,000  Level Chicago Center
05:03PM 42.2767 -89.9617 283° West 415 478 38,000  Level Chicago Center
05:04PM 42.3028 -90.1142 283° West 417 480 38,000  Level Chicago Center
05:05PM 42.3278 -90.2636 283° West 412 474 38,000  Level Chicago Center
05:06PM 42.3525 -90.4125 283° West 408 470 38,000  Level Chicago Center
05:07PM 42.3778 -90.5644 283° West 416 479 38,000  Level Chicago Center
05:08PM 42.4042 -90.7175 283° West 421 484 38,000  Level Chicago Center
05:09PM 42.4211 -90.8717 279° West 418 481 38,000  Level Chicago Center
05:10PM 42.4333 -91.0272 276° West 416 479 38,000  Level Chicago Center
05:11PM 42.4478 -91.1817 277° West 416 479 38,000  Level Chicago Center
05:12PM 42.4661 -91.3639 278° West 411 473 38,000  Level Chicago Center
05:13PM 42.4800 -91.5147 277° West 407 468 38,000  Level Chicago Center
05:14PM 42.4931 -91.6664 277° West 404 465 38,000  Level Chicago Center
05:15PM 42.5058 -91.8206 276° West 408 470 38,000  Level Chicago Center
05:16PM 42.5206 -91.9758 277° West 413 475 38,000  Level Chicago Center
05:17PM 42.5328 -92.1319 276° West 417 480 38,000  Level Chicago Center
05:18PM 42.5464 -92.2839 277° West 409 471 38,000  Level Chicago Center
05:19PM 42.5572 -92.4364 276° West 408 470 38,000  Level Chicago Center
05:20PM 42.5614 -92.5872 272° West 403 464 38,000  Level Chicago Center
05:21PM 42.5667 -92.7392 273° West 406 467 38,000  Level Chicago Center
05:23PM 42.5731 -92.8936 273° West 413 475 38,000  Level Chicago Center
05:24PM 42.5781 -93.0767 272° West 409 471 38,000  Level Chicago Center
05:25PM 42.5831 -93.2297 273° West 409 471 38,000  Level Chicago Center
05:26PM 42.5869 -93.3814 272° West 405 466 38,000  Level Chicago Center
05:27PM 42.5911 -93.5333 272° West 406 467 38,000  Level Chicago Center
05:28PM 42.5969 -93.6844 273° West 405 466 38,000  Level Chicago Center
05:29PM 42.6000 -93.8342 272° West 401 461 38,000  Level Chicago Center
05:30PM 42.6028 -93.9836 271° West 400 460 38,000  Level Chicago Center
05:31PM 42.6064 -94.1333 272° West 399 459 38,000  Level Chicago Center
05:32PM 42.6111 -94.3433 272° West 399 459 38,000  Level Minneapolis Center
05:33PM 42.6078 -94.4950 268° West 402 463 38,000  Level Minneapolis Center
05:34PM 42.6067 -94.6583 270° West 402 463 38,000  Level Minneapolis Center
05:35PM 42.6036 -94.8094 268° West 402 463 38,000  Level Minneapolis Center
05:36PM 42.6003 -94.9597 268° West 400 460 38,000  Level Minneapolis Center
05:37PM 42.5981 -95.1075 269° West 395 455 38,000  Level Minneapolis Center
05:38PM 42.5956 -95.2547 269° West 392 451 38,000  Level Minneapolis Center
05:39PM 42.5919 -95.4050 268° West 398 458 38,000  Level Minneapolis Center
05:40PM 42.5881 -95.5550 268° West 400 460 38,000  Level Minneapolis Center
05:41PM 42.5839 -95.7333 268° West 397 457 38,000  Level Minneapolis Center
05:42PM 42.5803 -95.8825 268° West 396 456 38,000  Level Minneapolis Center
05:43PM 42.5761 -96.0261 268° West 388 447 38,000  Level Minneapolis Center
05:44PM 42.5717 -96.1706 268° West 384 442 38,000  Level Minneapolis Center
05:45PM 42.5672 -96.3147 268° West 383 441 38,000  Level Minneapolis Center
05:46PM 42.5631 -96.4583 268° West 383 441 38,000  Level Minneapolis Center
05:47PM 42.5583 -96.6050 268° West 388 447 38,000  Level Minneapolis Center
05:48PM 42.5528 -96.7775 268° West 384 442 38,000  Level Minneapolis Center
05:49PM 42.5478 -96.9231 267° West 385 443 38,000  Level Minneapolis Center
05:50PM 42.5422 -97.0711 267° West 391 450 38,000  Level Minneapolis Center
05:51PM 42.5356 -97.2236 267° West 400 460 38,000  Level Minneapolis Center
05:52PM 42.5300 -97.3736 267° West 400 460 38,000  Level Minneapolis Center
05:54PM 42.5242 -97.5244 267° West 401 461 38,000  Level Minneapolis Center
05:55PM 42.5175 -97.6750 267° West 401 461 38,000  Level Minneapolis Center
05:56PM 42.5100 -97.8419 267° West 397 457 38,000  Level Minneapolis Center
05:57PM 42.5019 -97.9903 266° West 395 455 38,000  Level Minneapolis Center
05:58PM 42.4681 -98.1311 252° West 394 453 38,000  Level Minneapolis Center
05:59PM 42.4322 -98.2706 251° West 394 453 38,000  Level Minneapolis Center
06:00PM 42.3906 -98.4358 251° West 388 447 38,000  Level Minneapolis Center
06:01PM 42.3539 -98.5739 250° West 391 450 38,000  Level Minneapolis Center
06:02PM 42.3181 -98.7106 251° West 388 447 38,000  Level Minneapolis Center
06:03PM 42.2825 -98.8469 251° West 386 444 38,000  Level Minneapolis Center
06:04PM 42.2472 -98.9808 250° West 381 438 38,000  Level Minneapolis Center
06:05PM 42.2125 -99.1125 250° West 376 433 38,000  Level Minneapolis Center
06:06PM 42.1781 -99.2419 250° West 369 425 38,000  Level Minneapolis Center
06:07PM 42.1356 -99.4014 250° West 375 432 38,000  Level Minneapolis Center
06:08PM 42.1003 -99.5322 250° West 374 430 38,000  Level Minneapolis Center
06:09PM 42.0653 -99.6631 250° West 373 429 38,000  Level Minneapolis Center
06:10PM 42.0300 -99.7925 250° West 371 427 38,000  Level Minneapolis Center
06:11PM 41.9944 -99.9231 250° West 372 428 38,000  Level Minneapolis Center
06:12PM 41.9578 -100.0572 250° West 378 435 38,000  Level Minneapolis Center
06:13PM 41.9200 -100.1900 249° West 380 437 38,000  Level Minneapolis Center
06:14PM 41.8822 -100.3233 249° West 383 441 38,000  Level Minneapolis Center
06:15PM 41.8392 -100.4797 250° West 376 433 38,000  Level Minneapolis Center
06:16PM 41.8242 -100.5292 248° West 374 430 38,000  Level Denver Center
06:17PM 41.7839 -100.6731 249° West 370 426 38,000  Level Denver Center
06:18PM 41.7492 -100.7956 249° West 369 425 38,000  Level Denver Center
06:19PM 41.7086 -100.9411 250° West 374 430 38,000  Level Denver Center
06:20PM 41.6725 -101.0647 249° West 375 432 38,000  Level Denver Center
06:21PM 41.6308 -101.2103 249° West 377 434 38,000  Level Denver Center
06:22PM 41.5939 -101.3358 249° West 380 437 38,000  Level Denver Center
06:23PM 41.5508 -101.4817 249° West 381 438 38,000  Level Denver Center
06:24PM 41.5144 -101.6061 249° West 379 436 38,000  Level Denver Center
06:25PM 41.4722 -101.7508 249° West 377 434 38,000  Level Denver Center
06:26PM 41.4367 -101.8739 249° West 375 432 38,000  Level Denver Center
06:27PM 41.3933 -102.0178 248° West 375 432 38,000  Level Denver Center
06:28PM 41.3572 -102.1381 248° West 369 425 38,000  Level Denver Center
06:29PM 41.3144 -102.2781 248° West 367 422 38,000  Level Denver Center
06:30PM 41.2789 -102.3994 249° West 369 425 38,000  Level Denver Center
06:31PM 41.2350 -102.5403 248° West 370 426 38,000  Level Denver Center
06:32PM 41.1969 -102.6625 248° West 373 429 38,000  Level Denver Center
06:33PM 41.1567 -102.8006 249° West 362 417 38,000  Level Denver Center
06:34PM 41.1203 -102.9164 247° West 358 412 38,000  Level Denver Center
06:35PM 41.0828 -103.0381 248° West 364 419 38,000  Level Denver Center
06:36PM 41.0400 -103.1756 248° West 362 417 38,000  Level Denver Center
06:37PM 41.0033 -103.2931 248° West 360 414 38,000  Level Denver Center
06:38PM 40.9653 -103.4131 247° West 357 411 38,000  Level Denver Center
06:39PM 40.9192 -103.5592 247° West 360 414 38,000  Level Denver Center
06:40PM 40.8806 -103.6825 248° West 363 418 38,000  Level Denver Center
06:41PM 40.8408 -103.8067 247° West 368 423 38,000  Level Denver Center
06:42PM 40.8008 -103.9308 247° West 368 423 38,000  Level Denver Center
06:43PM 40.7614 -104.0567 248° West 372 428 38,000  Level Denver Center
06:45PM 40.7206 -104.1825 247° West 375 432 38,000  Level Denver Center
06:46PM 40.6717 -104.3306 247° West 371 427 38,000  Level Denver Center
06:47PM 40.6325 -104.4533 247° West 367 422 38,000  Level Denver Center
06:48PM 40.5925 -104.5756 247° West 365 420 38,000  Level Denver Center
06:49PM 40.5503 -104.7036 247° West 379 436 38,000  Level Denver Center
06:50PM 40.5081 -104.8319 247° West 384 442 38,000  Level Denver Center
06:51PM 40.4656 -104.9572 246° West 380 437 38,000  Level Denver Center
06:52PM 40.4164 -105.1031 246° West 371 427 38,000  Level Denver Center
06:53PM 40.3742 -105.2294 246° West 376 433 38,000  Level Denver Center
06:54PM 40.3297 -105.3608 246° West 389 448 38,000  Level Denver Center
06:55PM 40.2850 -105.4961 247° West 402 463 38,000  Level Denver Center
06:56PM 40.2378 -105.6347 246° West 415 478 38,000  Level Denver Center
06:57PM 40.1817 -105.7986 246° West 413 475 38,000  Level Denver Center
06:58PM 40.1367 -105.9286 246° West 398 458 38,000  Level Denver Center
06:59PM 40.0936 -106.0561 246° West 388 447 38,000  Level Denver Center
07:00PM 40.0486 -106.1842 245° Southwest 389 448 38,000  Level Denver Center
07:01PM 40.0050 -106.3083 245° Southwest 381 438 38,000  Level Denver Center
07:02PM 39.9614 -106.4319 245° Southwest 377 434 38,000  Level Denver Center
07:03PM 39.9164 -106.5650 246° West 384 442 38,000  Level Denver Center
07:04PM 39.8725 -106.6908 246° West 384 442 38,000  Level Denver Center
07:05PM 39.8194 -106.8392 245° Southwest 380 437 38,000  Level Denver Center
07:06PM 39.7747 -106.9650 245° Southwest 385 443 38,000  Level Denver Center
07:07PM 39.7311 -107.0894 246° West 383 441 38,000  Level Denver Center
07:08PM 39.6850 -107.2147 244° Southwest 379 436 38,000  Level Denver Center
07:09PM 39.6333 -107.3561 245° Southwest 386 444 38,000  Level Denver Center
07:10PM 39.5892 -107.4767 245° Southwest 387 445 38,000  Level Denver Center
07:11PM 39.5394 -107.6167 245° Southwest 384 442 38,000  Level Denver Center
07:12PM 39.4958 -107.7353 245° Southwest 382 440 38,000  Level Denver Center
07:13PM 39.4458 -107.8722 245° Southwest 377 434 38,000  Level Denver Center
07:14PM 39.4008 -107.9917 244° Southwest 381 438 38,000  Level Denver Center
07:16PM 39.3500 -108.1294 245° Southwest 381 438 38,000  Level Denver Center
07:17PM 39.3069 -108.2475 245° Southwest 378 435 38,000  Level Denver Center
07:18PM 39.2619 -108.3669 244° Southwest 382 440 38,000  Level Denver Center
07:19PM 39.2097 -108.5072 244° Southwest 384 442 38,000  Level Denver Center
07:20PM 39.1639 -108.6275 244° Southwest 388 447 38,000  Level Denver Center
07:21PM 39.1106 -108.7672 244° Southwest 387 445 38,000  Level Denver Center
07:22PM 39.0658 -108.8858 244° Southwest 384 442 38,000  Level Denver Center
07:23PM 39.0133 -109.0244 244° Southwest 384 442 38,000  Level Denver Center
07:24PM 38.9672 -109.1439 244° Southwest 387 445 38,000  Level Denver Center
07:25PM 38.9142 -109.2836 244° Southwest 386 444 38,000  Level Denver Center
07:26PM 38.8692 -109.4014 244° Southwest 383 441 38,000  Level Denver Center
07:27PM 38.8219 -109.5203 243° Southwest 389 448 38,000  Level Denver Center
07:28PM 38.7669 -109.6575 243° Southwest 385 443 38,000  Level Denver Center
07:29PM 38.7203 -109.7772 243° Southwest 390 449 38,000  Level Denver Center
07:30PM 38.6664 -109.9156 244° Southwest 389 448 38,000  Level Denver Center
07:31PM 38.6206 -110.0342 244° Southwest 387 445 38,000  Level Denver Center
07:32PM 38.5664 -110.1697 243° Southwest 384 442 38,000  Level Denver Center
07:33PM 38.5200 -110.2856 243° Southwest 382 440 38,000  Level Denver Center
07:34PM 38.4667 -110.4194 243° Southwest 380 437 38,000  Level Denver Center
07:35PM 38.4197 -110.5336 242° Southwest 379 436 38,000 -240 Level Denver Center
07:36PM 38.3658 -110.6703 243° Southwest 385 443 37,600 -660 Descending Denver Center
07:37PM 38.3197 -110.7825 242° Southwest 375 432 36,700 -1,020 Descending Denver Center
07:38PM 38.2681 -110.9131 243° Southwest 371 427 35,600 -960 Descending Denver Center
07:39PM 38.2242 -111.0203 243° Southwest 375 432 34,800 -900 Descending Denver Center
07:40PM 38.1756 -111.1392 243° Southwest 379 436 33,800 -1,080 Descending Denver Center
07:42PM 38.1078 -111.3008 242° Southwest 370 426 32,300 -780 Descending Salt Lake Center
07:43PM 38.0489 -111.4119 236° Southwest 375 432 32,000 -180 Descending Salt Lake Center
07:44PM 37.9894 -111.5225 236° Southwest 379 436 32,000  Level Salt Lake Center
07:45PM 37.9308 -111.6333 236° Southwest 379 436 32,000  Level Salt Lake Center
07:46PM 37.8714 -111.7442 236° Southwest 380 437 32,000  Level Salt Lake Center
07:47PM 37.7997 -111.8769 236° Southwest 381 438 32,000  Level Salt Lake Center
07:48PM 37.7394 -111.9878 236° Southwest 383 441 32,000  Level Salt Lake Center
07:49PM 37.6806 -112.0986 236° Southwest 380 437 32,000  Level Salt Lake Center
07:50PM 37.6203 -112.2094 236° Southwest 382 440 32,000  Level Salt Lake Center
07:51PM 37.5597 -112.3208 236° Southwest 382 440 32,000  Level Salt Lake Center
07:52PM 37.4981 -112.4331 235° Southwest 385 443 32,000  Level Los Angeles Center
07:53PM 37.4367 -112.5453 235° Southwest 386 444 32,000 -540 Level Los Angeles Center
07:54PM 37.3742 -112.6578 235° Southwest 387 445 31,000 -960 Descending Los Angeles Center
07:55PM 37.3111 -112.7722 235° Southwest 391 450 30,100 -540 Descending Los Angeles Center
07:56PM 37.2475 -112.8883 235° Southwest 398 458 30,000 -60 Descending Los Angeles Center
07:57PM 37.1842 -113.0028 235° Southwest 398 458 30,000  Level Los Angeles Center
07:58PM 37.1219 -113.1153 235° Southwest 394 453 30,000  Level Los Angeles Center
07:59PM 37.0469 -113.2514 235° Southwest 395 455 30,000  Level Los Angeles Center
08:00PM 36.9836 -113.3642 235° Southwest 396 456 30,000  Level Los Angeles Center
08:01PM 36.9206 -113.4769 235° Southwest 397 457 30,000  Level Los Angeles Center
08:02PM 36.8569 -113.5897 235° Southwest 397 457 30,000 -1,260 Level Los Angeles Center
08:03PM 36.7939 -113.7028 235° Southwest 398 458 27,500 -2,400 Descending Los Angeles Center
08:04PM 36.7300 -113.8131 234° Southwest 392 451 25,100 -2,520 Descending Los Angeles Center
08:05PM 36.6592 -113.9406 235° Southwest 374 430 22,300 -2,520 Descending Los Angeles Center
08:06PM 36.6003 -114.0406 234° Southwest 360 414 20,000 -2,220 Descending Los Angeles Center
08:07PM 36.5486 -114.1411 237° Southwest 347 399 17,700 -2,100 Descending Los Angeles Center
08:08PM 36.5039 -114.2417 241° Southwest 337 388 15,700 -2,100 Descending Los Angeles Center
08:08PM 36.5011 -114.2531 253° West 347 399 15,500 -3,240 Descending Los Angeles Center
08:09PM 36.4911 -114.2753 241° Southwest 341 392 15,000 -1,920 Descending Los Angeles Center
08:09PM 36.4606 -114.3389 239° Southwest 327 376 13,600 -2,100 Descending Los Angeles Center
08:10PM 36.4456 -114.3714 240° Southwest 327 376 12,900 -1,380 Descending Los Angeles Center
08:10PM 36.4144 -114.4381 240° Southwest 329 379 12,200 -1,020 Descending Los Angeles Center
08:11PM 36.3997 -114.4675 238° Southwest 324 373 11,900 -1,020 Descending Los Angeles Center
08:11PM 36.3425 -114.5181 215° Southwest 301 346 11,200 -900 Descending Los Angeles Center
08:12PM 36.3369 -114.5261 229° Southwest 290 334 11,000 -1,500 Descending Los Angeles Center
08:13PM 36.2808 -114.5686 211° Southwest 275 316 9,700 -1,620 Descending Los Angeles Center
08:13PM 36.2686 -114.5786 213° Southwest 270 311 9,400 -1,560 Descending Los Angeles Center
08:14PM 36.2175 -114.6169 211° Southwest 269 310 8,100 -1,380 Descending Los Angeles Center
08:14PM 36.2078 -114.6261 217° Southwest 267 307 8,000 -120 Descending Los Angeles Center
08:15PM 36.1569 -114.6622 210° Southwest 262 302 8,000  Level Los Angeles Center
08:15PM 36.1483 -114.6700 216° Southwest 260 299 8,000  Level Los Angeles Center
08:16PM 36.1044 -114.7031 211° Southwest 238 274 8,000  Level Los Angeles Center
08:16PM 36.0969 -114.7114 222° Southwest 228 262 8,000 -480 Level Los Angeles Center
08:17PM 36.0731 -114.7700 243° Southwest 209 241 7,500 -600 Descending Los Angeles Center
08:18PM 36.0722 -114.8339 269° West 193 222 6,900 -600 Descending Los Angeles Center
08:18PM 36.0742 -114.8333 13° North 177 204 6,900 -1,020 Level Los Angeles Center
08:19PM 36.0733 -114.8975 269° West 186 214 5,900 -1,200 Descending Los Angeles Center
08:20PM 36.0742 -114.9744 271° West 214 246 4,500 -1,260 Descending Los Angeles Center
08:21PM 36.0733 -115.0361 269° West 169 194 3,400 -1,080 Descending Los Angeles Center
08:21PM 36.0739 -115.0372 302° West 189 217 3,400 -840 Level Los Angeles Center
08:22PM 36.0739 -115.0892 270° West 150 173 2,600 -780 Descending Los Angeles Center
08:22PM 36.0736 -115.0917 262° West 151 174 2,600 -540 Level Los Angeles Center
08:23PM 36.0733 -115.1361 270° West 144 166 2,000 -600 Descending Los Angeles Center
08:25PM 36.0667 -115.1500 219° Southwest  Level FlightAware Approximate